Terminal Aerodrome Forecast
Issued by NWS Cheyenne, WY

Home | Current Version | Previous Version | Text Only | Print | Product List | Glossary On
Versions: 1 2 3 4 5 6 7 8 9 10 11 12 13 14 15 16 17 18 19 20 21 22 23 24 25 26 27 28 29 30 31 32 33 34 35 36 37 38
000
FTUS45 KCYS 031743
TAFCYS
TAF
KCYS 031743Z 0318/0418 04010KT P6SM BKN020
     FM032200 11010KT 5SM -TSRA SCT010 OVC020CB
     FM040200 11009KT P6SM VCSH BKN025
     FM040600 16007KT P6SM OVC015
     FM041200 22006KT 4SM BR OVC003=

USA.gov is the U.S. government's official web portal to all federal, state and local government web resources and services.